Time;durP1;ratioP1;P1;durP2;ratioP2;P2;SDS_P1;SDS_P2;PMS_P1;PMS_P2;Temp;Humidity;BMP_temperature;BMP_pressure;BME280_temperature;BME280_humidity;BME280_pressure;Samples;Min_cycle;Max_cycle;Signal;HPM_P1;HPM_P2
2023/04/23 00:02:15;;;;;;;6.32;4.70;;;;;;;9.94;50.66;93802.03;4976022;28;20046;-78
2023/04/23 00:04:49;;;;;;;6.03;3.33;;;;;;;9.92;50.26;93795.47;4972442;28;20747;-80
2023/04/23 00:07:15;;;;;;;8.32;4.38;;;;;;;9.91;50.62;93807.19;4979604;28;20022;-80
2023/04/23 00:09:42;;;;;;;8.35;4.55;;;;;;;9.82;50.85;93804.50;4976460;28;20036;-80
2023/04/23 00:12:08;;;;;;;4.85;3.63;;;;;;;9.83;51.24;93800.72;4973351;28;20045;-81
2023/04/23 00:14:34;;;;;;;3.80;3.38;;;;;;;9.88;51.10;93805.91;4975513;28;20042;-80
2023/04/23 00:16:59;;;;;;;10.85;5.00;;;;;;;9.77;51.25;93791.38;4970400;28;20041;-80
2023/04/23 00:19:25;;;;;;;4.68;3.92;;;;;;;9.58;51.24;93765.06;4971861;28;20467;-80
2023/04/23 00:21:50;;;;;;;7.32;4.03;;;;;;;9.78;51.82;93798.25;4974028;28;20031;-79
2023/04/23 00:24:16;;;;;;;7.53;5.10;;;;;;;9.82;51.50;93793.88;4975870;28;20033;-80
2023/04/23 00:26:42;;;;;;;6.10;4.55;;;;;;;9.86;51.60;93797.47;4970926;28;20030;-80
2023/04/23 00:29:07;;;;;;;5.68;4.55;;;;;;;9.73;51.82;93780.56;4975348;28;20034;-79
2023/04/23 00:31:32;;;;;;;7.15;4.40;;;;;;;9.77;51.90;93799.31;4973364;28;20547;-80
2023/04/23 00:33:58;;;;;;;5.15;4.57;;;;;;;9.74;51.98;93802.59;4973788;28;20061;-77
2023/04/23 00:36:24;;;;;;;5.45;3.88;;;;;;;9.73;52.04;93807.09;4972930;28;20126;-80
2023/04/23 00:38:50;;;;;;;4.40;4.00;;;;;;;9.69;52.57;93805.38;4970548;28;20923;-79
2023/04/23 00:41:16;;;;;;;5.93;4.82;;;;;;;9.70;52.34;93806.94;4974078;28;20101;-80
2023/04/23 00:43:42;;;;;;;6.80;4.50;;;;;;;9.49;52.34;93780.16;4973485;28;20073;-80
2023/04/23 00:46:08;;;;;;;8.73;4.57;;;;;;;9.51;52.56;93787.81;4975697;28;20022;-79
2023/04/23 00:48:35;;;;;;;10.65;4.97;;;;;;;9.56;52.32;93790.34;4974676;28;20026;-78
2023/04/23 00:51:05;;;;;;;6.80;4.22;;;;;;;9.54;52.19;93765.97;4990515;28;20509;-79
2023/04/23 00:53:31;;;;;;;6.18;3.97;;;;;;;9.57;52.01;93778.63;4978096;28;20058;-80
2023/04/23 00:55:57;;;;;;;4.82;4.10;;;;;;;9.38;52.62;93774.34;4974376;28;20039;-79
2023/04/23 00:58:22;;;;;;;9.35;4.18;;;;;;;9.51;52.69;93801.09;4975763;28;20045;-78
2023/04/23 01:00:50;;;;;;;6.90;4.63;;;;;;;9.38;52.39;93784.97;4973637;28;20029;-80
2023/04/23 01:03:17;;;;;;;5.50;4.00;;;;;;;9.47;52.66;93795.63;4977772;28;20042;-78
2023/04/23 01:05:42;;;;;;;8.68;4.20;;;;;;;9.56;52.15;93793.00;4977885;28;20511;-79
2023/04/23 01:08:13;;;;;;;6.35;4.18;;;;;;;9.45;52.66;93805.75;4980320;28;20034;-79
2023/04/23 01:10:39;;;;;;;4.95;4.45;;;;;;;9.26;52.46;93768.81;4978267;28;20097;-78
2023/04/23 01:13:05;;;;;;;6.15;4.82;;;;;;;9.35;52.43;93798.84;4976270;28;20042;-80
2023/04/23 01:15:30;;;;;;;8.15;3.50;;;;;;;9.25;52.62;93774.44;4978737;28;20464;-81
2023/04/23 01:17:57;;;;;;;4.57;3.42;;;;;;;9.39;52.82;93805.09;4979857;28;20035;-81
2023/04/23 01:20:23;;;;;;;4.85;3.92;;;;;;;9.37;52.34;93791.38;4976801;28;20709;-80
2023/04/23 01:22:49;;;;;;;5.35;4.38;;;;;;;9.31;52.68;93791.78;4979457;28;20038;-80
2023/04/23 01:25:15;;;;;;;4.63;4.03;;;;;;;9.35;52.33;93798.84;4975293;28;20032;-81
2023/04/23 01:27:41;;;;;;;4.82;3.97;;;;;;;9.32;52.86;93802.13;4976725;28;20383;-81
2023/04/23 01:30:07;;;;;;;8.75;4.28;;;;;;;9.08;52.62;93759.19;4975622;28;20037;-81
2023/04/23 01:32:34;;;;;;;6.47;4.80;;;;;;;9.20;53.05;93783.31;4979449;28;20656;-80
2023/04/23 01:35:00;;;;;;;8.25;5.03;;;;;;;9.29;53.41;93792.09;4976532;28;20766;-80
2023/04/23 01:37:26;;;;;;;6.55;4.57;;;;;;;9.12;53.22;93770.78;4980083;28;20031;-80
2023/04/23 01:39:52;;;;;;;6.55;4.43;;;;;;;9.28;53.16;93801.16;4978054;28;20906;-80
2023/04/23 01:42:17;;;;;;;7.63;5.00;;;;;;;9.22;53.02;93789.09;4993076;28;20097;-80
2023/04/23 01:44:43;;;;;;;4.75;4.35;;;;;;;9.27;52.84;93804.91;4976640;28;20054;-81
2023/04/23 01:47:09;;;;;;;6.05;3.88;;;;;;;9.19;52.87;93789.72;4976881;28;20042;-80
2023/04/23 01:49:34;;;;;;;5.68;4.38;;;;;;;9.23;52.68;93808.47;4978531;28;20421;-79
2023/04/23 01:52:00;;;;;;;5.88;4.30;;;;;;;9.29;52.51;93813.31;4976733;28;20053;-80
2023/04/23 01:54:25;;;;;;;9.05;4.82;;;;;;;9.18;52.32;93806.72;4977003;28;20022;-81
2023/04/23 01:56:53;;;;;;;7.72;4.22;;;;;;;8.96;52.72;93785.47;4975938;28;20308;-79
2023/04/23 01:59:20;;;;;;;6.22;4.13;;;;;;;9.00;52.67;93789.88;4976552;28;20042;-80
2023/04/23 02:01:46;;;;;;;5.53;4.43;;;;;;;8.83;52.70;93771.22;4974709;28;20042;-81
2023/04/23 02:04:14;;;;;;;6.50;5.07;;;;;;;9.02;52.87;93794.88;4977138;28;20089;-78
2023/04/23 02:06:41;;;;;;;8.32;6.07;;;;;;;8.99;53.35;93803.47;4977822;28;20117;-80
2023/04/23 02:09:07;;;;;;;8.80;4.85;;;;;;;9.09;53.22;93819.13;4975173;28;20061;-79
2023/04/23 02:11:32;;;;;;;9.45;5.55;;;;;;;9.11;53.12;93810.84;4975172;28;20042;-80
2023/04/23 02:13:57;;;;;;;6.18;4.72;;;;;;;8.88;53.25;93781.69;4973782;28;20500;-79
2023/04/23 02:16:23;;;;;;;7.05;4.72;;;;;;;8.98;53.24;93802.66;4967929;28;20042;-81
2023/04/23 02:18:49;;;;;;;5.88;5.13;;;;;;;9.03;53.16;93815.81;4978370;28;20065;-80
2023/04/23 02:21:15;;;;;;;7.47;5.60;;;;;;;8.88;53.52;93791.53;4976650;28;20425;-80
2023/04/23 02:23:40;;;;;;;6.88;5.78;;;;;;;8.82;53.35;93792.72;4975086;28;20042;-81
2023/04/23 02:26:07;;;;;;;6.45;5.68;;;;;;;8.87;53.32;93803.22;4977877;28;20065;-80
2023/04/23 02:28:32;;;;;;;8.85;5.28;;;;;;;8.94;53.55;93816.84;4975756;28;20126;-80
2023/04/23 02:30:58;;;;;;;6.28;5.10;;;;;;;8.83;53.66;93804.91;4974750;28;20138;-81
2023/04/23 02:33:24;;;;;;;7.78;5.28;;;;;;;8.92;53.90;93813.69;4975702;28;20037;-79
2023/04/23 02:35:50;;;;;;;8.50;6.15;;;;;;;8.71;53.32;93780.78;4975539;28;20046;-80
2023/04/23 02:38:15;;;;;;;7.40;5.15;;;;;;;8.77;53.47;93795.50;4975080;28;20124;-81
2023/04/23 02:40:42;;;;;;;7.93;5.78;;;;;;;8.83;53.39;93810.22;4973789;28;20314;-79
2023/04/23 02:43:07;;;;;;;10.75;5.50;;;;;;;8.67;53.34;93795.72;4973235;28;20081;-81
2023/04/23 02:45:33;;;;;;;9.98;5.85;;;;;;;8.64;53.37;93789.19;4971084;28;20257;-80
2023/04/23 02:47:58;;;;;;;8.85;5.18;;;;;;;8.67;53.42;93795.72;4974891;28;20475;-80
2023/04/23 02:50:23;;;;;;;7.00;5.75;;;;;;;8.78;53.83;93812.97;4973479;28;20066;-76
2023/04/23 02:52:49;;;;;;;6.30;5.32;;;;;;;8.59;53.60;93790.09;4968387;28;20050;-80
2023/04/23 02:55:15;;;;;;;8.73;6.40;;;;;;;8.63;53.75;93808.81;4976894;28;20122;-80
2023/04/23 02:57:40;;;;;;;11.70;5.97;;;;;;;8.59;54.11;93794.59;4977202;28;20117;-80
2023/04/23 03:00:07;;;;;;;11.15;6.85;;;;;;;8.70;54.20;93821.66;4972500;28;20105;-80
2023/04/23 03:02:32;;;;;;;9.68;5.07;;;;;;;8.67;53.49;93830.19;4974556;28;20138;-79
2023/04/23 03:04:57;;;;;;;5.80;4.38;;;;;;;8.68;53.67;93821.16;4977210;28;20115;-81
2023/04/23 03:07:23;;;;;;;6.60;5.05;;;;;;;8.63;53.79;93818.63;4975535;28;20456;-81
2023/04/23 03:09:48;;;;;;;6.40;5.13;;;;;;;8.57;53.46;93805.50;4976993;28;20848;-81
2023/04/23 03:12:14;;;;;;;6.65;5.18;;;;;;;8.51;53.66;93813.88;4973857;28;20034;-80
2023/04/23 03:14:39;;;;;;;11.73;5.90;;;;;;;8.64;53.65;93828.16;4974995;28;20841;-81
2023/04/23 03:17:05;;;;;;;10.10;6.13;;;;;;;8.35;53.74;93783.50;4975995;28;20031;-81
2023/04/23 03:19:32;;;;;;;9.43;5.53;;;;;;;8.51;54.01;93819.19;4978377;28;20038;-80
2023/04/23 03:21:57;;;;;;;7.50;5.95;;;;;;;8.51;53.89;93819.19;4977524;28;20539;-81
2023/04/23 03:24:23;;;;;;;7.40;5.57;;;;;;;8.59;54.06;93835.16;4971805;28;20065;-81
2023/04/23 03:26:48;;;;;;;10.13;5.53;;;;;;;8.65;53.89;93827.06;4974960;28;20048;-80
2023/04/23 03:29:14;;;;;;;6.88;5.60;;;;;;;8.54;53.68;93829.16;4976515;28;20354;-80
2023/04/23 03:31:39;;;;;;;8.80;6.30;;;;;;;8.57;53.80;93834.66;4974679;28;20489;-79
2023/04/23 03:34:05;;;;;;;7.85;6.72;;;;;;;8.53;54.38;93833.69;4977158;28;20034;-81
2023/04/23 03:36:31;;;;;;;10.80;7.55;;;;;;;8.56;54.68;93838.38;4978032;28;20488;-81
2023/04/23 03:38:56;;;;;;;9.85;6.68;;;;;;;8.32;54.62;93805.25;4974925;28;20106;-81
2023/04/23 03:41:22;;;;;;;12.80;7.15;;;;;;;8.52;55.00;93840.06;4978541;28;20850;-80
2023/04/23 03:43:47;;;;;;;8.27;6.80;;;;;;;8.46;54.89;93828.00;4978508;28;20057;-80
2023/04/23 03:46:12;;;;;;;9.15;7.53;;;;;;;8.53;54.89;93838.97;4975713;28;20030;-80
2023/04/23 03:48:38;;;;;;;15.27;8.48;;;;;;;8.50;54.91;93834.28;4975744;28;20613;-81
2023/04/23 03:51:03;;;;;;;13.02;8.52;;;;;;;8.53;54.82;93838.97;4976504;28;20064;-82
2023/04/23 03:53:28;;;;;;;15.77;8.70;;;;;;;8.47;55.25;93840.19;4976619;28;20039;-80
2023/04/23 03:55:54;;;;;;;15.20;9.27;;;;;;;8.43;55.09;93833.13;4975790;28;20066;-80
2023/04/23 03:58:19;;;;;;;11.15;8.05;;;;;;;8.51;55.43;93845.69;4990283;28;20035;-81
2023/04/23 04:00:45;;;;;;;11.10;8.50;;;;;;;8.50;55.47;93839.59;4977983;28;20596;-79
2023/04/23 04:03:10;;;;;;;16.75;9.88;;;;;;;8.58;55.74;93846.81;4974469;28;20035;-78
2023/04/23 04:05:35;;;;;;;13.45;9.00;;;;;;;8.34;55.66;93803.13;4983405;28;20124;-78
2023/04/23 04:08:01;;;;;;;11.70;8.70;;;;;;;8.70;55.61;93854.25;4976103;28;20109;-79
2023/04/23 04:10:27;;;;;;;17.42;11.25;;;;;;;8.72;55.72;93838.03;4973209;28;20458;-78
2023/04/23 04:12:54;;;;;;;15.07;11.18;;;;;;;8.54;55.86;93823.88;4978102;28;20436;-78
2023/04/23 04:15:19;;;;;;;15.20;10.27;;;;;;;8.76;55.96;93846.94;4973031;28;20132;-80
2023/04/23 04:17:45;;;;;;;15.13;10.65;;;;;;;8.80;55.79;93837.34;4975602;28;20499;-80
2023/04/23 04:20:11;;;;;;;15.27;9.82;;;;;;;8.91;55.88;93854.56;4975044;28;20034;-79
2023/04/23 04:22:37;;;;;;;13.48;9.52;;;;;;;8.97;55.60;93853.38;4977090;28;20753;-79
2023/04/23 04:25:04;;;;;;;15.88;10.27;;;;;;;8.92;57.09;93856.13;4976163;28;20705;-79
2023/04/23 04:27:32;;;;;;;15.40;10.35;;;;;;;9.07;56.29;93863.72;4977061;28;21630;-80
2023/04/23 04:29:58;;;;;;;18.00;12.15;;;;;;;9.18;56.21;93859.78;4975404;28;20109;-78
2023/04/23 04:32:23;;;;;;;15.45;11.15;;;;;;;9.18;56.07;93848.38;4974913;28;20509;-79
2023/04/23 04:34:49;;;;;;;13.85;10.63;;;;;;;9.27;56.51;93860.63;4976492;28;20112;-78
2023/04/23 04:37:15;;;;;;;16.42;10.77;;;;;;;9.32;56.04;93849.88;4975696;28;20030;-78
2023/04/23 04:39:41;;;;;;;18.08;12.45;;;;;;;8.90;57.38;93869.69;4976682;28;20425;-79
2023/04/23 04:42:07;;;;;;;15.57;10.82;;;;;;;8.63;58.66;93853.09;4974215;28;20043;-77
2023/04/23 04:44:32;;;;;;;14.25;10.35;;;;;;;9.01;57.67;93860.41;4974283;28;20120;-79
2023/04/23 04:46:58;;;;;;;18.00;10.73;;;;;;;8.98;57.12;93854.94;4972266;28;20040;-79
2023/04/23 04:49:23;;;;;;;14.25;10.50;;;;;;;9.14;56.70;93858.84;4976520;28;20946;-79
2023/04/23 04:51:48;;;;;;;16.40;10.82;;;;;;;9.25;56.60;93865.44;4971531;28;20037;-80
2023/04/23 04:54:14;;;;;;;12.45;9.93;;;;;;;8.62;57.93;93847.00;4972516;28;20065;-79
2023/04/23 04:56:39;;;;;;;14.70;10.48;;;;;;;9.02;58.20;93874.47;4974328;28;20045;-79
2023/04/23 04:59:05;;;;;;;11.90;9.68;;;;;;;9.36;57.19;93877.38;4974550;28;20082;-79
2023/04/23 05:01:32;;;;;;;15.32;9.90;;;;;;;8.87;57.58;93856.25;4974578;28;20472;-77
2023/04/23 05:03:58;;;;;;;10.60;9.50;;;;;;;9.23;57.11;93870.28;4975350;28;20041;-79
2023/04/23 05:06:23;;;;;;;12.35;9.25;;;;;;;9.55;55.51;93858.59;4975918;28;20042;-80
2023/04/23 05:08:49;;;;;;;13.90;9.82;;;;;;;9.95;54.74;93877.97;4973900;28;20393;-81
2023/04/23 05:11:21;;;;;;;12.98;9.57;;;;;;;9.76;54.78;93874.78;4976117;28;20030;-81
2023/04/23 05:13:47;;;;;;;9.75;8.82;;;;;;;9.82;54.41;93873.56;4975828;28;20097;-79
2023/04/23 05:16:12;;;;;;;10.57;9.45;;;;;;;9.64;55.37;93869.25;4976956;28;20042;-80
2023/04/23 05:18:38;;;;;;;13.70;9.50;;;;;;;9.73;55.14;93859.47;4975849;28;20030;-80
2023/04/23 05:21:05;;;;;;;15.77;10.38;;;;;;;9.78;55.13;93877.94;4974266;28;20034;-79
2023/04/23 05:23:30;;;;;;;12.93;9.90;;;;;;;9.89;55.11;93873.88;4974019;28;20034;-79
2023/04/23 05:25:57;;;;;;;14.20;11.10;;;;;;;9.39;55.54;93879.41;4971905;28;20452;-80
2023/04/23 05:28:23;;;;;;;17.60;11.27;;;;;;;8.89;58.64;93889.34;4972925;28;21083;-80
2023/04/23 05:30:49;;;;;;;12.90;10.07;;;;;;;9.14;58.16;93890.69;4975787;28;20038;-81
2023/04/23 05:33:15;;;;;;;10.40;9.30;;;;;;;9.63;56.11;93886.28;4975768;28;20033;-82
2023/04/23 05:35:40;;;;;;;11.18;9.57;;;;;;;9.68;54.67;93876.28;4975866;28;20045;-81
2023/04/23 05:38:06;;;;;;;13.77;9.10;;;;;;;9.90;54.09;93888.75;4974399;28;20043;-79
2023/04/23 05:40:32;;;;;;;12.65;10.00;;;;;;;9.99;54.06;93894.09;4977997;28;20492;-81
2023/04/23 05:42:58;;;;;;;14.02;10.43;;;;;;;9.95;54.77;93896.59;4976699;28;20037;-79
2023/04/23 05:45:23;;;;;;;11.13;8.80;;;;;;;9.45;55.85;93880.88;4975982;28;20089;-79
2023/04/23 05:47:49;;;;;;;13.70;9.70;;;;;;;9.57;56.20;93895.47;4977637;28;20066;-81
2023/04/23 05:50:14;;;;;;;10.73;9.63;;;;;;;9.85;55.78;93894.19;4976169;28;20043;-80
2023/04/23 05:52:39;;;;;;;11.60;8.65;;;;;;;9.80;55.35;93892.44;4976524;28;20050;-81
2023/04/23 05:55:08;;;;;;;11.15;9.82;;;;;;;9.66;56.02;93888.31;4977807;28;20052;-80
2023/04/23 05:57:33;;;;;;;10.40;8.63;;;;;;;9.79;55.66;93869.63;4976894;28;20668;-80
2023/04/23 05:59:59;;;;;;;11.48;9.93;;;;;;;10.28;54.71;93902.31;4976320;28;20048;-81
2023/04/23 06:02:24;;;;;;;15.07;9.15;;;;;;;10.36;53.75;93888.31;4979727;28;20041;-81
2023/04/23 06:04:49;;;;;;;12.60;9.68;;;;;;;10.56;52.91;93892.28;4977806;28;20573;-79
2023/04/23 06:07:15;;;;;;;11.20;9.10;;;;;;;10.78;52.47;93897.44;4977798;28;20061;-79
2023/04/23 06:09:40;;;;;;;14.30;10.27;;;;;;;10.92;52.15;93884.78;4978487;28;20521;-78
2023/04/23 06:12:06;;;;;;;13.00;9.30;;;;;;;11.07;51.84;93886.19;4974915;28;20046;-81
2023/04/23 06:14:31;;;;;;;15.52;9.85;;;;;;;11.12;52.00;93891.34;4977511;28;20399;-80
2023/04/23 06:16:57;;;;;;;9.90;8.63;;;;;;;11.02;52.64;93897.78;4976083;28;20460;-81
2023/04/23 06:19:25;;;;;;;11.90;9.40;;;;;;;10.93;53.22;93870.38;4978385;28;20392;-81
2023/04/23 06:21:51;;;;;;;12.55;8.80;;;;;;;11.04;52.59;93879.63;4977085;28;20520;-81
2023/04/23 06:24:19;;;;;;;12.50;9.07;;;;;;;11.24;52.14;93880.88;4978655;28;20070;-81
2023/04/23 06:26:44;;;;;;;12.90;9.02;;;;;;;11.14;52.39;93857.22;4978000;28;20049;-81
2023/04/23 06:29:10;;;;;;;16.88;10.10;;;;;;;11.08;53.24;93898.41;4975067;28;20568;-81
2023/04/23 06:31:35;;;;;;;10.15;9.13;;;;;;;11.14;53.45;93859.91;4991912;28;20342;-79
2023/04/23 06:34:01;;;;;;;12.27;9.32;;;;;;;11.13;53.78;93899.03;4974661;28;21060;-81
2023/04/23 06:36:27;;;;;;;11.13;8.88;;;;;;;10.86;54.18;93875.38;4977317;28;20125;-78
2023/04/23 06:38:52;;;;;;;13.20;9.25;;;;;;;11.39;52.61;93883.03;4977695;28;20066;-82
2023/04/23 06:41:18;;;;;;;11.07;9.65;;;;;;;10.54;54.91;93881.16;4976902;28;20121;-81
2023/04/23 06:43:44;;;;;;;13.38;9.13;;;;;;;10.61;55.88;93895.53;4973998;28;20042;-81
2023/04/23 06:46:10;;;;;;;14.25;10.48;;;;;;;10.88;55.23;93894.47;4976238;28;20555;-81
2023/04/23 06:48:36;;;;;;;11.63;9.68;;;;;;;11.04;55.24;93882.28;4973241;28;20037;-80
2023/04/23 06:51:02;;;;;;;12.63;9.43;;;;;;;11.46;54.20;93883.31;4973193;28;20069;-81
2023/04/23 06:53:27;;;;;;;11.10;9.32;;;;;;;11.06;54.05;93889.94;4972374;28;20515;-80
2023/04/23 06:55:53;;;;;;;17.25;9.63;;;;;;;10.62;55.61;93880.38;4973430;28;20489;-80
2023/04/23 06:58:18;;;;;;;14.80;9.85;;;;;;;11.48;54.33;93880.34;4973559;28;20905;-80
2023/04/23 07:00:44;;;;;;;10.50;8.95;;;;;;;10.80;54.17;93868.66;4974483;28;20022;-81
2023/04/23 07:03:09;;;;;;;15.80;9.25;;;;;;;11.13;54.93;93893.72;4975823;28;20052;-81
2023/04/23 07:05:34;;;;;;;16.58;9.90;;;;;;;10.86;55.64;93883.34;4973855;28;20042;-77
2023/04/23 07:08:00;;;;;;;18.77;10.85;;;;;;;10.59;55.70;93865.03;4976603;28;20042;-79
2023/04/23 07:10:25;;;;;;;14.55;10.57;;;;;;;10.66;55.46;93890.06;4973759;28;20041;-78
2023/04/23 07:12:51;;;;;;;13.88;10.23;;;;;;;11.00;54.91;93891.22;4974900;28;20062;-80
2023/04/23 07:15:16;;;;;;;12.38;9.43;;;;;;;11.10;55.65;93894.31;4971461;28;20445;-80
2023/04/23 07:17:41;;;;;;;11.68;9.30;;;;;;;11.70;52.91;93876.72;4970179;28;20073;-78
2023/04/23 07:20:07;;;;;;;14.20;9.98;;;;;;;11.63;52.53;93855.91;4967732;28;20069;-78
2023/04/23 07:22:33;;;;;;;13.60;10.38;;;;;;;11.28;54.99;93887.13;4971953;28;21023;-78
2023/04/23 07:25:04;;;;;;;11.35;9.75;;;;;;;11.20;53.84;93820.59;4971217;28;20033;-80
2023/04/23 07:27:32;;;;;;;12.63;10.48;;;;;;;11.29;54.41;93850.63;4977053;28;20030;-79
2023/04/23 07:29:57;;;;;;;11.50;9.95;;;;;;;11.27;54.39;93877.56;4976075;28;20034;-79
2023/04/23 07:32:26;;;;;;;12.57;10.75;;;;;;;11.55;53.92;93884.13;4978290;28;20038;-80
2023/04/23 07:34:53;;;;;;;12.57;9.82;;;;;;;11.00;55.39;93885.88;4975679;28;20532;-79
2023/04/23 07:37:20;;;;;;;11.93;9.82;;;;;;;10.70;55.79;93842.38;4973247;28;20038;-80
2023/04/23 07:39:46;;;;;;;11.85;10.07;;;;;;;11.32;54.92;93885.38;4978310;28;20527;-78
2023/04/23 07:42:12;;;;;;;11.57;10.07;;;;;;;11.73;53.29;93855.56;4977584;28;20034;-79
2023/04/23 07:44:37;;;;;;;13.90;10.10;;;;;;;12.11;51.30;93854.78;4975039;28;20035;-80
2023/04/23 07:47:03;;;;;;;13.80;10.65;;;;;;;11.62;53.24;93809.06;4976158;28;20046;-80
2023/04/23 07:49:28;;;;;;;13.48;10.50;;;;;;;11.76;52.86;93870.91;4979891;28;20045;-80
2023/04/23 07:51:54;;;;;;;16.40;10.18;;;;;;;11.49;54.56;93884.59;4968771;28;20573;-79
2023/04/23 07:54:19;;;;;;;12.80;10.00;;;;;;;11.40;55.27;93883.78;4978654;28;20062;-79
2023/04/23 07:56:46;;;;;;;13.50;11.27;;;;;;;11.50;54.75;93888.78;4974993;28;20046;-77
2023/04/23 07:59:12;;;;;;;15.07;10.38;;;;;;;11.14;55.78;93884.63;4981132;28;20042;-77
2023/04/23 08:01:38;;;;;;;11.27;10.00;;;;;;;11.46;54.66;93845.25;4976017;28;20042;-79
2023/04/23 08:04:03;;;;;;;13.95;11.15;;;;;;;11.31;54.79;93883.03;4973922;28;20112;-80
2023/04/23 08:06:33;;;;;;;14.48;9.48;;;;;;;10.94;56.37;93861.31;4978096;28;20026;-79
2023/04/23 08:08:59;;;;;;;15.60;10.10;;;;;;;11.06;55.60;93826.84;4977017;28;21010;-78
2023/04/23 08:11:25;;;;;;;12.57;9.88;;;;;;;11.39;55.15;93866.28;4976439;28;20111;-77
2023/04/23 08:13:50;;;;;;;12.07;9.35;;;;;;;11.15;55.06;93882.72;4976477;28;20050;-80
2023/04/23 08:16:16;;;;;;;11.98;9.32;;;;;;;11.55;54.87;93876.13;4980608;28;20026;-79
2023/04/23 08:18:41;;;;;;;13.68;9.30;;;;;;;11.89;54.21;93863.78;4973432;28;20111;-80
2023/04/23 08:21:07;;;;;;;10.63;9.30;;;;;;;11.45;54.43;93879.09;4974869;28;20415;-78
2023/04/23 08:23:32;;;;;;;12.57;9.80;;;;;;;11.50;54.72;93878.16;4978776;28;20042;-79
2023/04/23 08:25:57;;;;;;;13.75;9.32;;;;;;;11.72;53.43;93848.66;4974667;28;20505;-80
2023/04/23 08:28:23;;;;;;;17.83;9.70;;;;;;;12.00;51.86;93879.13;4971095;28;20530;-81
2023/04/23 08:30:48;;;;;;;12.82;9.80;;;;;;;11.64;53.93;93876.09;4981024;28;20029;-80
2023/04/23 08:33:14;;;;;;;10.43;8.98;;;;;;;11.75;53.02;93869.34;4974928;28;20038;-81
2023/04/23 08:35:40;;;;;;;11.90;9.25;;;;;;;11.49;53.33;93863.28;4976149;28;20045;-80
2023/04/23 08:38:05;;;;;;;14.32;9.35;;;;;;;11.17;53.04;93827.31;4979462;28;20804;-80
2023/04/23 08:40:31;;;;;;;13.40;9.73;;;;;;;11.78;53.37;93871.38;4977315;28;20050;-81
2023/04/23 08:43:01;;;;;;;10.38;9.27;;;;;;;12.19;51.48;93867.28;4979143;28;20034;-81
2023/04/23 08:45:29;;;;;;;12.45;9.50;;;;;;;12.13;51.15;93872.00;4977947;28;20034;-83
2023/04/23 08:47:58;;;;;;;15.02;9.43;;;;;;;12.68;50.06;93861.22;4986259;28;20038;-81
2023/04/23 08:50:24;;;;;;;14.95;10.82;;;;;;;12.82;50.10;93847.63;4983812;28;20045;-79
2023/04/23 08:52:52;;;;;;;11.60;9.10;;;;;;;12.72;50.66;93859.47;4985538;28;20053;-82
2023/04/23 08:55:20;;;;;;;10.23;9.05;;;;;;;12.24;50.75;93864.44;4980973;28;20140;-82
2023/04/23 08:57:45;;;;;;;13.63;9.40;;;;;;;12.33;49.42;93835.81;4984842;28;20354;-82
2023/04/23 09:00:13;;;;;;;9.27;8.38;;;;;;;12.90;49.16;93854.78;4979143;28;20039;-82
2023/04/23 09:02:43;;;;;;;11.50;8.93;;;;;;;12.39;49.22;93840.66;4980785;28;20038;-81
2023/04/23 09:05:09;;;;;;;11.93;9.27;;;;;;;12.71;48.60;93849.88;4981425;28;20126;-83
2023/04/23 09:07:35;;;;;;;10.63;9.25;;;;;;;12.99;48.67;93841.38;4980014;28;20165;-80
2023/04/23 09:10:06;;;;;;;24.42;9.48;;;;;;;12.35;50.07;93857.63;4976197;28;20030;-83
2023/04/23 09:12:35;;;;;;;15.63;9.30;;;;;;;12.80;49.93;93837.28;4975499;28;20054;-80
2023/04/23 09:15:01;;;;;;;14.07;9.95;;;;;;;13.18;50.63;93823.75;4991209;28;20156;-81
2023/04/23 09:17:29;;;;;;;18.90;9.60;;;;;;;12.90;49.51;93852.13;4979180;28;20039;-83
2023/04/23 09:19:55;;;;;;;13.90;9.52;;;;;;;12.94;49.32;93850.38;4972449;28;20042;-81
2023/04/23 09:22:51;;;;;;;10.07;8.80;;;;;;;13.02;47.94;93838.03;4989287;28;20686;-80
2023/04/23 09:25:22;;;;;;;10.43;9.43;;;;;;;13.13;47.86;93799.16;4980543;28;20611;-83
2023/04/23 09:27:49;;;;;;;13.13;9.50;;;;;;;13.53;47.33;93839.44;4981776;28;20042;-81
2023/04/23 09:30:16;;;;;;;12.57;9.18;;;;;;;13.44;47.10;93809.38;4982303;28;20021;-82
2023/04/23 09:32:44;;;;;;;13.18;9.30;;;;;;;13.60;46.90;93845.84;4997704;28;20043;-83
2023/04/23 09:35:12;;;;;;;11.98;8.90;;;;;;;13.68;46.54;93834.28;4983566;28;20159;-79
2023/04/23 09:37:47;;;;;;;11.88;8.48;;;;;;;13.93;46.69;93810.25;4984582;28;20555;-81
2023/04/23 09:40:14;;;;;;;11.52;9.70;;;;;;;13.63;47.20;93823.03;4979929;28;20596;-79
2023/04/23 09:42:40;;;;;;;13.15;9.23;;;;;;;13.23;48.03;93825.44;4983555;28;20053;-81
2023/04/23 09:45:11;;;;;;;15.68;9.48;;;;;;;13.56;46.65;93820.06;4983822;28;20539;-81
2023/04/23 09:47:47;;;;;;;14.57;8.60;;;;;;;13.45;46.39;93814.38;4978541;28;20123;-83
2023/04/23 09:50:13;;;;;;;14.65;9.55;;;;;;;13.64;46.50;93809.31;4984046;28;20041;-82
2023/04/23 09:52:39;;;;;;;10.23;9.20;;;;;;;13.28;46.05;93787.84;4980698;28;20042;-83
2023/04/23 09:55:08;;;;;;;12.00;8.70;;;;;;;13.59;45.87;93785.47;4987769;28;20064;-82
2023/04/23 09:57:39;;;;;;;10.65;8.68;;;;;;;13.66;45.08;93793.75;4978679;28;20045;-82
2023/04/23 10:00:15;;;;;;;12.18;8.98;;;;;;;13.63;46.11;93802.44;4984661;28;20026;-81
2023/04/23 10:02:48;;;;;;;11.68;8.30;;;;;;;13.60;45.71;93804.97;4984495;28;20050;-80
2023/04/23 10:05:19;;;;;;;12.18;9.52;;;;;;;13.95;45.35;93798.09;4984075;28;20038;-82
2023/04/23 10:07:47;;;;;;;9.82;8.50;;;;;;;13.73;44.72;93791.31;4976596;28;20041;-83
2023/04/23 10:10:15;;;;;;;12.75;9.15;;;;;;;13.72;45.26;93800.44;4983200;28;20054;-80
2023/04/23 10:12:44;;;;;;;9.10;8.20;;;;;;;13.71;44.83;93777.50;4980367;28;20046;-83
2023/04/23 10:15:12;;;;;;;9.75;8.57;;;;;;;13.71;45.78;93766.81;4997300;28;20029;-81
2023/04/23 10:17:38;;;;;;;12.05;8.57;;;;;;;14.02;44.38;93781.50;4972336;28;20038;-81
2023/04/23 10:20:07;;;;;;;14.82;7.78;;;;;;;14.56;43.81;93785.50;4973872;28;20130;-79
2023/04/23 10:22:36;;;;;;;14.27;7.57;;;;;;;13.99;43.77;93782.16;4974765;28;20766;-80
2023/04/23 10:25:10;;;;;;;8.63;7.75;;;;;;;14.45;42.48;93773.66;4974952;28;20034;-80
2023/04/23 10:27:45;;;;;;;12.40;8.77;;;;;;;14.82;43.84;93770.91;4987528;28;20031;-80
2023/04/23 10:30:12;;;;;;;8.40;7.60;;;;;;;14.29;42.38;93764.75;4969939;28;20026;-81
2023/04/23 10:32:38;;;;;;;9.15;7.88;;;;;;;14.31;42.28;93757.19;4959964;28;20051;-81
2023/04/23 10:35:05;;;;;;;13.20;7.70;;;;;;;14.71;40.98;93757.25;4969514;28;20062;-80
2023/04/23 10:37:31;;;;;;;10.00;7.93;;;;;;;14.85;40.61;93756.84;4963645;28;20034;-80
2023/04/23 10:40:04;;;;;;;9.07;7.78;;;;;;;14.52;42.01;93757.03;4960256;28;20090;-82
2023/04/23 10:42:30;;;;;;;9.57;7.22;;;;;;;14.39;41.16;93750.91;4959048;28;20304;-81
2023/04/23 10:44:57;;;;;;;10.10;8.48;;;;;;;14.46;41.74;93740.44;4960910;28;20025;-81
2023/04/23 10:47:23;;;;;;;10.20;7.95;;;;;;;14.73;41.38;93756.88;4982482;28;20038;-80
2023/04/23 10:49:48;;;;;;;13.23;8.07;;;;;;;14.57;41.37;93748.78;4964006;28;20125;-78
2023/04/23 10:52:16;;;;;;;12.48;8.02;;;;;;;14.97;40.82;93740.72;4954822;28;20038;-80
2023/04/23 10:54:42;;;;;;;12.15;8.20;;;;;;;15.39;42.89;93739.16;4958709;28;20039;-76
2023/04/23 10:57:10;;;;;;;10.45;7.85;;;;;;;15.12;40.25;93737.28;4967951;28;20113;-79
2023/04/23 10:59:40;;;;;;;8.75;6.70;;;;;;;14.85;40.48;93727.41;4954380;28;20027;-81
2023/04/23 11:02:07;;;;;;;13.35;8.38;;;;;;;14.40;40.15;93725.72;4957122;28;20038;-79
2023/04/23 11:04:34;;;;;;;12.30;7.32;;;;;;;14.49;40.61;93721.03;4956685;28;20413;-80
2023/04/23 11:07:10;;;;;;;10.55;7.15;;;;;;;14.18;41.06;93727.00;4954776;28;20038;-81
2023/04/23 11:09:37;;;;;;;13.45;6.97;;;;;;;14.64;40.80;93718.78;4955526;28;20087;-81
2023/04/23 11:12:06;;;;;;;9.02;6.82;;;;;;;14.87;39.87;93698.38;4960189;28;20031;-80
2023/04/23 11:14:46;;;;;;;7.07;6.38;;;;;;;15.20;39.55;93712.28;4947382;28;20047;-80
2023/04/23 11:17:13;;;;;;;10.13;7.15;;;;;;;15.55;42.78;93695.56;4957664;28;20043;-79
2023/04/23 11:19:40;;;;;;;7.30;6.57;;;;;;;15.54;37.74;93699.34;4951112;28;20053;-80
2023/04/23 11:22:15;;;;;;;7.10;6.40;;;;;;;14.84;38.36;93705.19;4953672;28;20164;-80
2023/04/23 11:24:43;;;;;;;10.38;7.10;;;;;;;14.56;38.98;93683.78;4972550;28;20041;-82
2023/04/23 11:27:18;;;;;;;8.23;6.25;;;;;;;14.41;37.94;93702.44;4976699;28;20030;-79
2023/04/23 11:29:45;;;;;;;9.60;7.03;;;;;;;14.50;40.86;93695.81;4970073;28;20053;-78